sensor_id;sensor_type;location;lat;lon;timestamp;pressure;altitude;pressure_sealevel;temperature;humidity
84358;BME280;74548;47.712;9.272;2024-02-14T00:00:31;96183.75;;;10.47;59.44
84358;BME280;74548;47.712;9.272;2024-02-14T00:02:57;96194.00;;;10.45;59.66
84358;BME280;74548;47.712;9.272;2024-02-14T00:05:23;96187.81;;;10.44;59.20
84358;BME280;74548;47.712;9.272;2024-02-14T00:07:49;96193.47;;;10.43;59.25
84358;BME280;74548;47.712;9.272;2024-02-14T00:10:14;96192.13;;;10.40;59.54
84358;BME280;74548;47.712;9.272;2024-02-14T00:12:40;96198.34;;;10.41;59.97
84358;BME280;74548;47.712;9.272;2024-02-14T00:15:06;96202.09;;;10.40;59.63
84358;BME280;74548;47.712;9.272;2024-02-14T00:17:33;96199.69;;;10.38;59.37
84358;BME280;74548;47.712;9.272;2024-02-14T00:20:00;96201.59;;;10.38;59.90
84358;BME280;74548;47.712;9.272;2024-02-14T00:22:32;96204.53;;;10.36;59.79
84358;BME280;74548;47.712;9.272;2024-02-14T00:24:58;96210.22;;;10.35;60.13
84358;BME280;74548;47.712;9.272;2024-02-14T00:27:24;96212.13;;;10.34;60.15
84358;BME280;74548;47.712;9.272;2024-02-14T00:29:51;96215.06;;;10.33;59.95
84358;BME280;74548;47.712;9.272;2024-02-14T00:32:19;96211.56;;;10.32;60.31
84358;BME280;74548;47.712;9.272;2024-02-14T00:34:44;96207.50;;;10.30;60.21
84358;BME280;74548;47.712;9.272;2024-02-14T00:37:10;96200.50;;;10.29;60.12
84358;BME280;74548;47.712;9.272;2024-02-14T00:39:36;96210.50;;;10.28;59.53
84358;BME280;74548;47.712;9.272;2024-02-14T00:42:02;96212.41;;;10.28;59.58
84358;BME280;74548;47.712;9.272;2024-02-14T00:44:27;96207.25;;;10.26;59.92
84358;BME280;74548;47.712;9.272;2024-02-14T00:46:59;96206.69;;;10.24;59.49
84358;BME280;74548;47.712;9.272;2024-02-14T00:49:25;96198.59;;;10.24;60.12
84358;BME280;74548;47.712;9.272;2024-02-14T00:51:51;96195.38;;;10.22;59.93
84358;BME280;74548;47.712;9.272;2024-02-14T00:54:16;96200.75;;;10.22;60.33
84358;BME280;74548;47.712;9.272;2024-02-14T00:56:42;96199.13;;;10.21;59.85
84358;BME280;74548;47.712;9.272;2024-02-14T00:59:07;96201.31;;;10.19;59.88
84358;BME280;74548;47.712;9.272;2024-02-14T01:01:33;96205.59;;;10.20;59.79
84358;BME280;74548;47.712;9.272;2024-02-14T01:06:26;96221.25;;;10.18;60.12
84358;BME280;74548;47.712;9.272;2024-02-14T01:08:51;96224.22;;;10.16;60.48
84358;BME280;74548;47.712;9.272;2024-02-14T01:11:17;96225.31;;;10.15;60.25
84358;BME280;74548;47.712;9.272;2024-02-14T01:13:42;96232.59;;;10.15;60.33
84358;BME280;74548;47.712;9.272;2024-02-14T01:16:07;96235.56;;;10.13;60.18
84358;BME280;74548;47.712;9.272;2024-02-14T01:18:33;96233.94;;;10.12;60.38
84358;BME280;74548;47.712;9.272;2024-02-14T01:20:58;96243.63;;;10.13;60.27
84358;BME280;74548;47.712;9.272;2024-02-14T01:23:24;96251.19;;;10.11;60.68
84358;BME280;74548;47.712;9.272;2024-02-14T01:25:49;96246.63;;;10.12;60.40
84358;BME280;74548;47.712;9.272;2024-02-14T01:28:15;96242.56;;;10.09;60.38
84358;BME280;74548;47.712;9.272;2024-02-14T01:30:42;96238.22;;;10.08;60.79
84358;BME280;74548;47.712;9.272;2024-02-14T01:33:08;96242.03;;;10.07;60.91
84358;BME280;74548;47.712;9.272;2024-02-14T01:35:33;96239.31;;;10.07;60.08
84358;BME280;74548;47.712;9.272;2024-02-14T01:37:58;96240.41;;;10.06;60.96
84358;BME280;74548;47.712;9.272;2024-02-14T01:40:24;96236.06;;;10.05;60.69
84358;BME280;74548;47.712;9.272;2024-02-14T01:42:49;96230.97;;;10.04;60.78
84358;BME280;74548;47.712;9.272;2024-02-14T01:45:15;96232.84;;;10.03;60.67
84358;BME280;74548;47.712;9.272;2024-02-14T01:47:40;96228.53;;;10.02;60.84
84358;BME280;74548;47.712;9.272;2024-02-14T01:50:07;96234.19;;;10.00;61.17
84358;BME280;74548;47.712;9.272;2024-02-14T01:52:37;96218.81;;;10.01;61.13
84358;BME280;74548;47.712;9.272;2024-02-14T01:55:04;96229.09;;;9.99;60.94
84358;BME280;74548;47.712;9.272;2024-02-14T01:57:33;96225.56;;;9.98;60.78
84358;BME280;74548;47.712;9.272;2024-02-14T02:00:00;96228.25;;;9.98;60.84
84358;BME280;74548;47.712;9.272;2024-02-14T02:02:29;96231.25;;;9.97;60.64
84358;BME280;74548;47.712;9.272;2024-02-14T02:04:55;96234.19;;;9.95;61.02
84358;BME280;74548;47.712;9.272;2024-02-14T02:07:20;96235.03;;;9.96;60.62
84358;BME280;74548;47.712;9.272;2024-02-14T02:12:02;96219.91;;;9.95;60.88
84358;BME280;74548;47.712;9.272;2024-02-14T02:14:30;96222.88;;;9.93;61.36
84358;BME280;74548;47.712;9.272;2024-02-14T02:16:55;96226.38;;;9.94;60.84
84358;BME280;74548;47.712;9.272;2024-02-14T02:19:22;96223.94;;;9.92;61.46
84358;BME280;74548;47.712;9.272;2024-02-14T02:21:47;96221.53;;;9.91;61.00
84358;BME280;74548;47.712;9.272;2024-02-14T02:24:13;96211.84;;;9.90;60.64
84358;BME280;74548;47.712;9.272;2024-02-14T02:26:38;96215.34;;;9.90;60.92
84358;BME280;74548;47.712;9.272;2024-02-14T02:29:03;96216.38;;;9.89;61.45
84358;BME280;74548;47.712;9.272;2024-02-14T02:31:30;96215.59;;;9.89;61.45
84358;BME280;74548;47.712;9.272;2024-02-14T02:33:56;96216.66;;;9.88;61.57
84358;BME280;74548;47.712;9.272;2024-02-14T02:36:21;96215.06;;;9.87;61.75
84358;BME280;74548;47.712;9.272;2024-02-14T02:38:49;96208.03;;;9.86;61.48
84358;BME280;74548;47.712;9.272;2024-02-14T02:41:15;96208.84;;;9.86;61.12
84358;BME280;74548;47.712;9.272;2024-02-14T02:43:41;96218.00;;;9.85;61.34
84358;BME280;74548;47.712;9.272;2024-02-14T02:48:18;96206.97;;;9.82;61.56
84358;BME280;74548;47.712;9.272;2024-02-14T02:50:45;96211.53;;;9.81;61.46
84358;BME280;74548;47.712;9.272;2024-02-14T02:53:14;96214.50;;;9.80;61.15
84358;BME280;74548;47.712;9.272;2024-02-14T02:55:40;96211.78;;;9.80;60.73
84358;BME280;74548;47.712;9.272;2024-02-14T03:00:29;96205.09;;;9.77;61.41
84358;BME280;74548;47.712;9.272;2024-02-14T03:02:54;96205.09;;;9.77;61.25
84358;BME280;74548;47.712;9.272;2024-02-14T03:05:20;96207.22;;;9.75;61.48
84358;BME280;74548;47.712;9.272;2024-02-14T03:07:48;96216.91;;;9.76;61.34
84358;BME280;74548;47.712;9.272;2024-02-14T03:10:15;96208.31;;;9.74;61.28
84358;BME280;74548;47.712;9.272;2024-02-14T03:12:45;96212.88;;;9.73;61.26
84358;BME280;74548;47.712;9.272;2024-02-14T03:15:10;96211.25;;;9.72;61.61
84358;BME280;74548;47.712;9.272;2024-02-14T03:17:36;96203.97;;;9.73;61.62
84358;BME280;74548;47.712;9.272;2024-02-14T03:20:03;96213.97;;;9.72;61.50
84358;BME280;74548;47.712;9.272;2024-02-14T03:22:33;96214.25;;;9.71;61.51
84358;BME280;74548;47.712;9.272;2024-02-14T03:24:58;96221.50;;;9.70;61.18
84358;BME280;74548;47.712;9.272;2024-02-14T03:27:24;96207.22;;;9.70;61.49
84358;BME280;74548;47.712;9.272;2024-02-14T03:29:52;96202.91;;;9.69;61.33
84358;BME280;74548;47.712;9.272;2024-02-14T03:32:17;96204.00;;;9.68;61.28
84358;BME280;74548;47.712;9.272;2024-02-14T03:34:42;96201.31;;;9.68;60.91
84358;BME280;74548;47.712;9.272;2024-02-14T03:37:08;96210.72;;;9.65;61.61
84358;BME280;74548;47.712;9.272;2024-02-14T03:41:57;96222.59;;;9.64;61.57
84358;BME280;74548;47.712;9.272;2024-02-14T03:44:22;96221.75;;;9.64;61.41
84358;BME280;74548;47.712;9.272;2024-02-14T03:46:48;96219.34;;;9.62;61.57
84358;BME280;74548;47.712;9.272;2024-02-14T03:49:14;96215.84;;;9.62;61.13
84358;BME280;74548;47.712;9.272;2024-02-14T03:51:39;96221.47;;;9.60;61.52
84358;BME280;74548;47.712;9.272;2024-02-14T03:54:05;96228.75;;;9.60;60.91
84358;BME280;74548;47.712;9.272;2024-02-14T03:56:30;96231.47;;;9.60;61.15
84358;BME280;74548;47.712;9.272;2024-02-14T03:58:58;96233.34;;;9.59;61.47
84358;BME280;74548;47.712;9.272;2024-02-14T04:01:24;96230.91;;;9.58;61.32
84358;BME280;74548;47.712;9.272;2024-02-14T04:03:49;96237.13;;;9.58;61.55
84358;BME280;74548;47.712;9.272;2024-02-14T04:06:15;96242.75;;;9.57;61.57
84358;BME280;74548;47.712;9.272;2024-02-14T04:08:40;96244.66;;;9.56;61.40
84358;BME280;74548;47.712;9.272;2024-02-14T04:11:06;96234.97;;;9.55;61.43
84358;BME280;74548;47.712;9.272;2024-02-14T04:13:31;96244.91;;;9.54;61.29
84358;BME280;74548;47.712;9.272;2024-02-14T04:18:24;96248.69;;;9.53;61.45
84358;BME280;74548;47.712;9.272;2024-02-14T04:20:49;96247.06;;;9.52;61.64
84358;BME280;74548;47.712;9.272;2024-02-14T04:23:15;96251.66;;;9.52;62.04
84358;BME280;74548;47.712;9.272;2024-02-14T04:25:40;96266.19;;;9.51;61.66
84358;BME280;74548;47.712;9.272;2024-02-14T04:28:06;96256.25;;;9.51;61.60
84358;BME280;74548;47.712;9.272;2024-02-14T04:30:31;96257.28;;;9.50;61.73
84358;BME280;74548;47.712;9.272;2024-02-14T04:32:57;96255.69;;;9.49;61.66
84358;BME280;74548;47.712;9.272;2024-02-14T04:35:22;96259.19;;;9.50;62.15
84358;BME280;74548;47.712;9.272;2024-02-14T04:37:47;96252.19;;;9.49;61.93
84358;BME280;74548;47.712;9.272;2024-02-14T04:40:14;96250.56;;;9.48;62.21
84358;BME280;74548;47.712;9.272;2024-02-14T04:42:43;96245.16;;;9.48;61.76
84358;BME280;74548;47.712;9.272;2024-02-14T04:45:09;96248.13;;;9.46;61.51
84358;BME280;74548;47.712;9.272;2024-02-14T04:47:34;96231.16;;;9.46;61.72
84358;BME280;74548;47.712;9.272;2024-02-14T04:50:00;96238.44;;;9.45;61.63
84358;BME280;74548;47.712;9.272;2024-02-14T04:52:26;96225.78;;;9.46;61.88
84358;BME280;74548;47.712;9.272;2024-02-14T04:54:52;96232.22;;;9.45;62.09
84358;BME280;74548;47.712;9.272;2024-02-14T04:59:43;96227.13;;;9.43;61.86
84358;BME280;74548;47.712;9.272;2024-02-14T05:02:08;96231.69;;;9.43;61.84
84358;BME280;74548;47.712;9.272;2024-02-14T05:04:33;96234.63;;;9.41;61.82
84358;BME280;74548;47.712;9.272;2024-02-14T05:07:02;96240.84;;;9.42;62.22
84358;BME280;74548;47.712;9.272;2024-02-14T05:09:28;96255.38;;;9.41;61.84
84358;BME280;74548;47.712;9.272;2024-02-14T05:11:53;96259.97;;;9.40;62.51
84358;BME280;74548;47.712;9.272;2024-02-14T05:14:19;96257.56;;;9.39;62.12
84358;BME280;74548;47.712;9.272;2024-02-14T05:16:45;96252.16;;;9.39;61.67
84358;BME280;74548;47.712;9.272;2024-02-14T05:19:10;96262.09;;;9.38;62.03
84358;BME280;74548;47.712;9.272;2024-02-14T05:21:35;96267.50;;;9.38;62.17
84358;BME280;74548;47.712;9.272;2024-02-14T05:24:01;96277.47;;;9.38;62.61
84358;BME280;74548;47.712;9.272;2024-02-14T05:26:26;96258.88;;;9.36;61.89
84358;BME280;74548;47.712;9.272;2024-02-14T05:28:52;96263.47;;;9.36;61.99
84358;BME280;74548;47.712;9.272;2024-02-14T05:31:17;96264.28;;;9.36;62.33
84358;BME280;74548;47.712;9.272;2024-02-14T05:33:43;96268.03;;;9.35;62.39
84358;BME280;74548;47.712;9.272;2024-02-14T05:36:08;96267.22;;;9.35;61.74
84358;BME280;74548;47.712;9.272;2024-02-14T05:38:33;96268.28;;;9.34;62.33
84358;BME280;74548;47.712;9.272;2024-02-14T05:40:59;96279.06;;;9.34;61.65
84358;BME280;74548;47.712;9.272;2024-02-14T05:43:25;96272.06;;;9.33;62.04
84358;BME280;74548;47.712;9.272;2024-02-14T05:45:51;96285.53;;;9.33;62.00
84358;BME280;74548;47.712;9.272;2024-02-14T05:48:16;96278.53;;;9.32;61.91
84358;BME280;74548;47.712;9.272;2024-02-14T05:50:41;96282.00;;;9.32;62.29
84358;BME280;74548;47.712;9.272;2024-02-14T05:53:07;96283.09;;;9.31;62.44
84358;BME280;74548;47.712;9.272;2024-02-14T05:55:32;96287.69;;;9.30;61.96
84358;BME280;74548;47.712;9.272;2024-02-14T05:57:57;96286.88;;;9.30;62.21
84358;BME280;74548;47.712;9.272;2024-02-14T06:00:24;96286.06;;;9.29;62.44
84358;BME280;74548;47.712;9.272;2024-02-14T06:02:50;96285.22;;;9.29;62.56
84358;BME280;74548;47.712;9.272;2024-02-14T06:05:16;96287.13;;;9.28;61.74
84358;BME280;74548;47.712;9.272;2024-02-14T06:10:07;96291.72;;;9.28;62.03
84358;BME280;74548;47.712;9.272;2024-02-14T06:12:33;96290.91;;;9.27;62.47
84358;BME280;74548;47.712;9.272;2024-02-14T06:14:58;96285.75;;;9.26;62.43
84358;BME280;74548;47.712;9.272;2024-02-14T06:17:23;96295.47;;;9.27;62.48
84358;BME280;74548;47.712;9.272;2024-02-14T06:19:49;96297.38;;;9.26;62.23
84358;BME280;74548;47.712;9.272;2024-02-14T06:22:14;96284.94;;;9.25;62.23
84358;BME280;74548;47.712;9.272;2024-02-14T06:24:39;96288.44;;;9.26;62.16
84358;BME280;74548;47.712;9.272;2024-02-14T06:27:06;96297.63;;;9.25;62.23
84358;BME280;74548;47.712;9.272;2024-02-14T06:29:31;96296.81;;;9.24;62.39
84358;BME280;74548;47.712;9.272;2024-02-14T06:31:56;96306.78;;;9.24;62.60
84358;BME280;74548;47.712;9.272;2024-02-14T06:34:22;96312.16;;;9.24;62.53
84358;BME280;74548;47.712;9.272;2024-02-14T06:36:47;96304.09;;;9.24;62.48
84358;BME280;74548;47.712;9.272;2024-02-14T06:39:12;96325.63;;;9.24;62.21
84358;BME280;74548;47.712;9.272;2024-02-14T06:41:38;96327.53;;;9.23;62.01
84358;BME280;74548;47.712;9.272;2024-02-14T06:44:04;96318.63;;;9.23;62.08
84358;BME280;74548;47.712;9.272;2024-02-14T06:46:30;96322.38;;;9.22;62.75
84358;BME280;74548;47.712;9.272;2024-02-14T06:51:14;96323.19;;;9.22;62.07
84358;BME280;74548;47.712;9.272;2024-02-14T06:53:39;96321.56;;;9.21;62.21
84358;BME280;74548;47.712;9.272;2024-02-14T06:56:05;96325.34;;;9.20;62.50
84358;BME280;74548;47.712;9.272;2024-02-14T06:58:30;96328.03;;;9.20;62.60
84358;BME280;74548;47.712;9.272;2024-02-14T07:00:56;96337.72;;;9.21;62.46
84358;BME280;74548;47.712;9.272;2024-02-14T07:03:21;96341.50;;;9.20;62.48
84358;BME280;74548;47.712;9.272;2024-02-14T07:05:46;96352.28;;;9.20;62.68
84358;BME280;74548;47.712;9.272;2024-02-14T07:08:12;96339.88;;;9.19;62.83
84358;BME280;74548;47.712;9.272;2024-02-14T07:10:37;96339.88;;;9.19;62.88
84358;BME280;74548;47.712;9.272;2024-02-14T07:13:02;96335.56;;;9.18;62.38
84358;BME280;74548;47.712;9.272;2024-02-14T07:15:28;96338.25;;;9.18;63.01
84358;BME280;74548;47.712;9.272;2024-02-14T07:17:54;96342.84;;;9.18;62.64
84358;BME280;74548;47.712;9.272;2024-02-14T07:20:21;96335.56;;;9.18;62.84
84358;BME280;74548;47.712;9.272;2024-02-14T07:22:46;96355.22;;;9.19;63.03
84358;BME280;74548;47.712;9.272;2024-02-14T07:25:13;96354.41;;;9.18;62.45
84358;BME280;74548;47.712;9.272;2024-02-14T07:27:39;96349.03;;;9.18;62.42
84358;BME280;74548;47.712;9.272;2024-02-14T07:30:05;96354.41;;;9.18;62.47
84358;BME280;74548;47.712;9.272;2024-02-14T07:32:30;96354.41;;;9.18;62.42
84358;BME280;74548;47.712;9.272;2024-02-14T07:34:56;96346.34;;;9.18;62.41
84358;BME280;74548;47.712;9.272;2024-02-14T07:37:21;96338.25;;;9.18;62.46
84358;BME280;74548;47.712;9.272;2024-02-14T07:39:47;96321.28;;;9.18;62.34
84358;BME280;74548;47.712;9.272;2024-02-14T07:42:13;96322.09;;;9.18;62.87
84358;BME280;74548;47.712;9.272;2024-02-14T07:44:39;96323.19;;;9.17;62.57
84358;BME280;74548;47.712;9.272;2024-02-14T07:47:04;96317.78;;;9.17;63.15
84358;BME280;74548;47.712;9.272;2024-02-14T07:49:30;96311.59;;;9.17;62.34
84358;BME280;74548;47.712;9.272;2024-02-14T07:51:55;96318.59;;;9.18;62.67
84358;BME280;74548;47.712;9.272;2024-02-14T07:54:20;96322.38;;;9.17;62.63
84358;BME280;74548;47.712;9.272;2024-02-14T07:56:46;96335.56;;;9.18;62.82
84358;BME280;74548;47.712;9.272;2024-02-14T07:59:11;96335.84;;;9.17;62.47
84358;BME280;74548;47.712;9.272;2024-02-14T08:01:37;96337.69;;;9.16;62.21
84358;BME280;74548;47.712;9.272;2024-02-14T08:04:03;96332.88;;;9.18;62.42
84358;BME280;74548;47.712;9.272;2024-02-14T08:06:29;96331.25;;;9.17;63.10
84358;BME280;74548;47.712;9.272;2024-02-14T08:08:55;96327.47;;;9.18;62.68
84358;BME280;74548;47.712;9.272;2024-02-14T08:11:24;96322.91;;;9.19;63.02
84358;BME280;74548;47.712;9.272;2024-02-14T08:16:03;96325.59;;;9.19;62.79
84358;BME280;74548;47.712;9.272;2024-02-14T08:18:28;96327.47;;;9.18;62.33
84358;BME280;74548;47.712;9.272;2024-02-14T08:20:54;96330.16;;;9.18;62.54
84358;BME280;74548;47.712;9.272;2024-02-14T08:24:02;96330.16;;;9.18;63.05
84358;BME280;74548;47.712;9.272;2024-02-14T08:26:28;96341.75;;;9.19;62.43
84358;BME280;74548;47.712;9.272;2024-02-14T08:28:53;96341.50;;;9.20;62.67
84358;BME280;74548;47.712;9.272;2024-02-14T08:31:19;96328.28;;;9.19;62.60
84358;BME280;74548;47.712;9.272;2024-02-14T08:33:45;96326.41;;;9.19;62.78
84358;BME280;74548;47.712;9.272;2024-02-14T08:36:10;96328.28;;;9.19;62.44
84358;BME280;74548;47.712;9.272;2024-02-14T08:38:36;96337.16;;;9.19;62.75
84358;BME280;74548;47.712;9.272;2024-02-14T08:41:02;96336.13;;;9.20;62.51
84358;BME280;74548;47.712;9.272;2024-02-14T08:43:28;96329.94;;;9.20;62.90
84358;BME280;74548;47.712;9.272;2024-02-14T08:45:57;96328.84;;;9.21;62.30
84358;BME280;74548;47.712;9.272;2024-02-14T08:50:53;96325.34;;;9.20;62.42
84358;BME280;74548;47.712;9.272;2024-02-14T08:53:19;96328.56;;;9.22;62.90
84358;BME280;74548;47.712;9.272;2024-02-14T08:55:44;96335.84;;;9.22;62.72
84358;BME280;74548;47.712;9.272;2024-02-14T08:58:10;96339.34;;;9.22;62.89
84358;BME280;74548;47.712;9.272;2024-02-14T09:00:36;96339.34;;;9.22;62.48
84358;BME280;74548;47.712;9.272;2024-02-14T09:03:05;96345.56;;;9.23;62.76
84358;BME280;74548;47.712;9.272;2024-02-14T09:05:30;96350.13;;;9.22;62.00
84358;BME280;74548;47.712;9.272;2024-02-14T09:07:56;96355.50;;;9.22;61.98
84358;BME280;74548;47.712;9.272;2024-02-14T09:10:22;96355.50;;;9.22;62.41
84358;BME280;74548;47.712;9.272;2024-02-14T09:12:48;96353.88;;;9.21;62.42
84358;BME280;74548;47.712;9.272;2024-02-14T09:15:14;96352.81;;;9.22;62.39
84358;BME280;74548;47.712;9.272;2024-02-14T09:17:40;96350.13;;;9.22;62.50
84358;BME280;74548;47.712;9.272;2024-02-14T09:20:09;96350.13;;;9.22;62.26
84358;BME280;74548;47.712;9.272;2024-02-14T09:24:49;96350.94;;;9.23;62.50
84358;BME280;74548;47.712;9.272;2024-02-14T09:27:15;96349.06;;;9.23;62.88
84358;BME280;74548;47.712;9.272;2024-02-14T09:29:41;96354.44;;;9.23;61.92
84358;BME280;74548;47.712;9.272;2024-02-14T09:32:06;96354.44;;;9.23;62.87
84358;BME280;74548;47.712;9.272;2024-02-14T09:34:31;96349.88;;;9.24;62.12
84358;BME280;74548;47.712;9.272;2024-02-14T09:36:56;96352.56;;;9.24;63.01
84358;BME280;74548;47.712;9.272;2024-02-14T09:39:24;96353.38;;;9.24;62.49
84358;BME280;74548;47.712;9.272;2024-02-14T09:41:54;96354.16;;;9.25;62.67
84358;BME280;74548;47.712;9.272;2024-02-14T09:44:27;96347.97;;;9.24;62.91
84358;BME280;74548;47.712;9.272;2024-02-14T09:46:54;96347.19;;;9.24;61.93
84358;BME280;74548;47.712;9.272;2024-02-14T09:49:21;96358.47;;;9.26;62.37
84358;BME280;74548;47.712;9.272;2024-02-14T09:51:48;96354.97;;;9.25;62.65
84358;BME280;74548;47.712;9.272;2024-02-14T09:54:17;96363.06;;;9.25;62.92
84358;BME280;74548;47.712;9.272;2024-02-14T09:56:50;96356.63;;;9.26;62.81
84358;BME280;74548;47.712;9.272;2024-02-14T09:59:19;96348.53;;;9.26;62.10
84358;BME280;74548;47.712;9.272;2024-02-14T10:01:44;96353.09;;;9.26;62.82
84358;BME280;74548;47.712;9.272;2024-02-14T10:04:11;96356.34;;;9.28;62.32
84358;BME280;74548;47.712;9.272;2024-02-14T10:06:36;96357.16;;;9.28;63.21
84358;BME280;74548;47.712;9.272;2024-02-14T10:09:02;96357.16;;;9.28;62.47
84358;BME280;74548;47.712;9.272;2024-02-14T10:11:27;96348.03;;;9.29;62.67
84358;BME280;74548;47.712;9.272;2024-02-14T10:13:53;96345.31;;;9.29;62.42
84358;BME280;74548;47.712;9.272;2024-02-14T10:16:22;96340.75;;;9.30;62.40
84358;BME280;74548;47.712;9.272;2024-02-14T10:18:48;96346.13;;;9.30;62.48
84358;BME280;74548;47.712;9.272;2024-02-14T10:21:18;96345.06;;;9.31;62.55
84358;BME280;74548;47.712;9.272;2024-02-14T10:23:44;96347.75;;;9.31;62.19
84358;BME280;74548;47.712;9.272;2024-02-14T10:26:12;96350.44;;;9.31;62.36
84358;BME280;74548;47.712;9.272;2024-02-14T10:28:41;96345.84;;;9.32;62.50
84358;BME280;74548;47.712;9.272;2024-02-14T10:31:07;96343.16;;;9.32;62.25
84358;BME280;74548;47.712;9.272;2024-02-14T10:33:34;96344.81;;;9.33;62.20
84358;BME280;74548;47.712;9.272;2024-02-14T10:35:59;96342.09;;;9.33;62.22
84358;BME280;74548;47.712;9.272;2024-02-14T10:38:31;96344.81;;;9.33;62.02
84358;BME280;74548;47.712;9.272;2024-02-14T10:40:58;96351.00;;;9.33;62.10
84358;BME280;74548;47.712;9.272;2024-02-14T10:43:25;96359.59;;;9.35;61.96
84358;BME280;74548;47.712;9.272;2024-02-14T10:45:52;96358.00;;;9.34;62.13
84358;BME280;74548;47.712;9.272;2024-02-14T10:48:22;96356.09;;;9.35;62.83
84358;BME280;74548;47.712;9.272;2024-02-14T10:50:50;96349.66;;;9.36;62.15
84358;BME280;74548;47.712;9.272;2024-02-14T10:53:18;96350.47;;;9.36;62.48
84358;BME280;74548;47.712;9.272;2024-02-14T10:55:51;96351.28;;;9.37;61.86
84358;BME280;74548;47.712;9.272;2024-02-14T10:58:17;96346.69;;;9.37;61.44
84358;BME280;74548;47.712;9.272;2024-02-14T11:00:43;96346.69;;;9.37;61.66
84358;BME280;74548;47.712;9.272;2024-02-14T11:03:09;96354.53;;;9.39;62.13
84358;BME280;74548;47.712;9.272;2024-02-14T11:05:48;96347.25;;;9.39;62.09
84358;BME280;74548;47.712;9.272;2024-02-14T11:10:37;96349.16;;;9.39;61.34
84358;BME280;74548;47.712;9.272;2024-02-14T11:13:03;96349.16;;;9.39;61.45
84358;BME280;74548;47.712;9.272;2024-02-14T11:15:28;96344.28;;;9.41;61.08
84358;BME280;74548;47.712;9.272;2024-02-14T11:18:04;96349.66;;;9.41;60.95
84358;BME280;74548;47.712;9.272;2024-02-14T11:20:34;96344.28;;;9.41;61.03
84358;BME280;74548;47.712;9.272;2024-02-14T11:23:04;96353.97;;;9.42;61.29
84358;BME280;74548;47.712;9.272;2024-02-14T11:25:33;96353.16;;;9.41;61.15
84358;BME280;74548;47.712;9.272;2024-02-14T11:28:24;96351.28;;;9.42;61.31
84358;BME280;74548;47.712;9.272;2024-02-14T11:30:51;96346.97;;;9.41;61.10
84358;BME280;74548;47.712;9.272;2024-02-14T11:33:20;96349.66;;;9.41;61.38
84358;BME280;74548;47.712;9.272;2024-02-14T11:35:50;96336.19;;;9.41;61.28
84358;BME280;74548;47.712;9.272;2024-02-14T11:38:18;96341.59;;;9.41;60.84
84358;BME280;74548;47.712;9.272;2024-02-14T11:40:44;96344.03;;;9.42;61.44
84358;BME280;74548;47.712;9.272;2024-02-14T11:43:15;96334.06;;;9.43;60.82
84358;BME280;74548;47.712;9.272;2024-02-14T11:45:42;96336.75;;;9.43;60.95
84358;BME280;74548;47.712;9.272;2024-02-14T11:48:11;96327.88;;;9.42;60.74
84358;BME280;74548;47.712;9.272;2024-02-14T11:50:41;96334.88;;;9.43;60.49
84358;BME280;74548;47.712;9.272;2024-02-14T11:53:08;96332.97;;;9.44;60.79
84358;BME280;74548;47.712;9.272;2024-02-14T11:55:37;96342.69;;;9.45;60.83
84358;BME280;74548;47.712;9.272;2024-02-14T11:58:06;96335.69;;;9.44;61.05
84358;BME280;74548;47.712;9.272;2024-02-14T12:00:32;96331.91;;;9.45;60.83
84358;BME280;74548;47.712;9.272;2024-02-14T12:02:58;96335.44;;;9.45;60.58
84358;BME280;74548;47.712;9.272;2024-02-14T12:05:24;96328.16;;;9.46;60.88
84358;BME280;74548;47.712;9.272;2024-02-14T12:07:53;96335.16;;;9.47;60.61
84358;BME280;74548;47.712;9.272;2024-02-14T12:10:19;96335.16;;;9.47;60.29
84358;BME280;74548;47.712;9.272;2024-02-14T12:12:47;96334.91;;;9.48;60.16
84358;BME280;74548;47.712;9.272;2024-02-14T12:15:13;96328.44;;;9.49;60.47
84358;BME280;74548;47.712;9.272;2024-02-14T12:17:40;96333.81;;;9.49;60.42
84358;BME280;74548;47.712;9.272;2024-02-14T12:20:10;96331.13;;;9.49;60.00
84358;BME280;74548;47.712;9.272;2024-02-14T12:22:38;96336.25;;;9.51;60.37
84358;BME280;74548;47.712;9.272;2024-02-14T12:25:05;96329.25;;;9.50;60.14
84358;BME280;74548;47.712;9.272;2024-02-14T12:27:32;96340.00;;;9.50;59.70
84358;BME280;74548;47.712;9.272;2024-02-14T12:29:59;96336.25;;;9.51;60.00
84358;BME280;74548;47.712;9.272;2024-02-14T12:32:24;96342.47;;;9.51;59.89
84358;BME280;74548;47.712;9.272;2024-02-14T12:34:49;96340.28;;;9.53;60.36
84358;BME280;74548;47.712;9.272;2024-02-14T12:37:15;96336.78;;;9.53;60.01
84358;BME280;74548;47.712;9.272;2024-02-14T12:39:40;96334.09;;;9.53;60.38
84358;BME280;74548;47.712;9.272;2024-02-14T12:42:06;96334.91;;;9.53;60.65
84358;BME280;74548;47.712;9.272;2024-02-14T12:44:31;96329.53;;;9.53;60.71
84358;BME280;74548;47.712;9.272;2024-02-14T12:46:57;96328.44;;;9.54;60.27
84358;BME280;74548;47.712;9.272;2024-02-14T12:49:23;96322.25;;;9.54;60.55
84358;BME280;74548;47.712;9.272;2024-02-14T12:51:51;96322.00;;;9.56;60.58
84358;BME280;74548;47.712;9.272;2024-02-14T12:54:16;96317.41;;;9.56;60.63
84358;BME280;74548;47.712;9.272;2024-02-14T12:56:42;96315.78;;;9.55;60.79
84358;BME280;74548;47.712;9.272;2024-02-14T12:59:08;96317.41;;;9.56;60.61
84358;BME280;74548;47.712;9.272;2024-02-14T13:01:37;96313.09;;;9.55;60.19
84358;BME280;74548;47.712;9.272;2024-02-14T13:04:02;96318.22;;;9.57;60.50
84358;BME280;74548;47.712;9.272;2024-02-14T13:06:30;96307.44;;;9.57;60.62
84358;BME280;74548;47.712;9.272;2024-02-14T13:08:56;96302.03;;;9.57;59.69
84358;BME280;74548;47.712;9.272;2024-02-14T13:11:21;96310.94;;;9.57;60.04
84358;BME280;74548;47.712;9.272;2024-02-14T13:13:47;96311.75;;;9.58;60.77
84358;BME280;74548;47.712;9.272;2024-02-14T13:16:12;96307.19;;;9.58;60.10
84358;BME280;74548;47.712;9.272;2024-02-14T13:18:38;96303.41;;;9.59;60.18
84358;BME280;74548;47.712;9.272;2024-02-14T13:21:05;96312.28;;;9.60;60.27
84358;BME280;74548;47.712;9.272;2024-02-14T13:23:30;96309.59;;;9.60;60.16
84358;BME280;74548;47.712;9.272;2024-02-14T13:25:56;96301.28;;;9.61;59.48
84358;BME280;74548;47.712;9.272;2024-02-14T13:28:21;96307.47;;;9.62;59.82
84358;BME280;74548;47.712;9.272;2024-02-14T13:30:47;96300.19;;;9.62;59.77
84358;BME280;74548;47.712;9.272;2024-02-14T13:33:13;96304.50;;;9.63;60.14
84358;BME280;74548;47.712;9.272;2024-02-14T13:35:39;96302.88;;;9.62;60.71